aviador You're here:

YLRE Decoded Metar

in
Report Time2017-10-19 21:00:00
UTC Time2017-10-19 21:47:39
Flight Rules vfr VFR
Wind060° at 13 kt
W.Decomp.*RWY 04: 12.2 kt HW 4.4 kt RCW
W.Rank060° ranks 7
Current wind is above 060° avg. (9.5)
Visibility9999 m
Phenomena:N/A
Clouds:N/A
Expected CloudBase > 2,000 ft AGL from Temp-Dew spread
CeilingNone
Temp23°C
Dew Point18°C (74% RH)
AAT21.2°C
QNH1018 hPa
Raw Report
METAR YLRE 192100Z AUTO 06013KT 9999 // NCD 23/18 Q1018=

Extra information for YLRE:More info

Social comments